sensor_id;sensor_type;location;lat;lon;timestamp;pressure;altitude;pressure_sealevel;temperature;humidity
3444;BME280;1736;52.068;6.968;2022-12-29T00:01:59;99617.47;;;10.15;100.00
3444;BME280;1736;52.068;6.968;2022-12-29T00:04:26;99613.97;;;10.14;100.00
3444;BME280;1736;52.068;6.968;2022-12-29T00:06:54;99605.38;;;10.12;100.00
3444;BME280;1736;52.068;6.968;2022-12-29T00:09:20;99602.72;;;10.12;100.00
3444;BME280;1736;52.068;6.968;2022-12-29T00:11:47;99603.09;;;10.17;100.00
3444;BME280;1736;52.068;6.968;2022-12-29T00:14:15;99587.72;;;10.21;100.00
3444;BME280;1736;52.068;6.968;2022-12-29T00:16:59;99585.22;;;10.19;100.00
3444;BME280;1736;52.068;6.968;2022-12-29T00:19:26;99579.84;;;10.11;100.00
3444;BME280;1736;52.068;6.968;2022-12-29T00:22:13;99580.38;;;10.15;100.00
3444;BME280;1736;52.068;6.968;2022-12-29T00:24:58;99580.22;;;10.16;100.00
3444;BME280;1736;52.068;6.968;2022-12-29T00:27:42;99586.53;;;10.15;100.00
3444;BME280;1736;52.068;6.968;2022-12-29T00:30:26;99570.63;;;10.15;100.00
3444;BME280;1736;52.068;6.968;2022-12-29T00:33:12;99583.88;;;10.15;100.00
3444;BME280;1736;52.068;6.968;2022-12-29T00:35:58;99577.88;;;10.13;100.00
3444;BME280;1736;52.068;6.968;2022-12-29T00:38:28;99573.56;;;10.12;100.00
3444;BME280;1736;52.068;6.968;2022-12-29T00:41:13;99564.03;;;10.19;100.00
3444;BME280;1736;52.068;6.968;2022-12-29T00:43:57;99570.97;;;10.20;100.00
3444;BME280;1736;52.068;6.968;2022-12-29T00:46:33;99569.31;;;10.19;100.00
3444;BME280;1736;52.068;6.968;2022-12-29T00:49:03;99564.03;;;10.19;100.00
3444;BME280;1736;52.068;6.968;2022-12-29T00:51:47;99559.53;;;10.20;100.00
3444;BME280;1736;52.068;6.968;2022-12-29T00:54:16;99558.38;;;10.22;100.00
3444;BME280;1736;52.068;6.968;2022-12-29T00:56:43;99545.63;;;10.18;100.00
3444;BME280;1736;52.068;6.968;2022-12-29T00:59:11;99540.91;;;10.12;100.00
3444;BME280;1736;52.068;6.968;2022-12-29T01:01:38;99549.69;;;10.12;100.00
3444;BME280;1736;52.068;6.968;2022-12-29T01:04:06;99534.78;;;10.11;100.00
3444;BME280;1736;52.068;6.968;2022-12-29T01:06:33;99529.50;;;10.11;100.00
3444;BME280;1736;52.068;6.968;2022-12-29T01:09:01;99535.66;;;10.02;100.00
3444;BME280;1736;52.068;6.968;2022-12-29T01:11:46;99539.00;;;10.04;100.00
3444;BME280;1736;52.068;6.968;2022-12-29T01:14:13;99538.72;;;10.07;100.00
3444;BME280;1736;52.068;6.968;2022-12-29T01:16:40;99534.25;;;10.08;100.00
3444;BME280;1736;52.068;6.968;2022-12-29T01:19:06;99522.41;;;10.02;100.00
3444;BME280;1736;52.068;6.968;2022-12-29T01:21:33;99519.31;;;9.89;100.00
3444;BME280;1736;52.068;6.968;2022-12-29T01:24:00;99531.91;;;9.87;100.00
3444;BME280;1736;52.068;6.968;2022-12-29T01:26:26;99521.06;;;9.81;100.00
3444;BME280;1736;52.068;6.968;2022-12-29T01:28:54;99515.53;;;9.74;100.00
3444;BME280;1736;52.068;6.968;2022-12-29T01:31:21;99519.16;;;9.73;100.00
3444;BME280;1736;52.068;6.968;2022-12-29T01:33:47;99516.13;;;9.68;100.00
3444;BME280;1736;52.068;6.968;2022-12-29T01:36:16;99508.63;;;9.64;100.00
3444;BME280;1736;52.068;6.968;2022-12-29T01:38:43;99500.25;;;9.68;100.00
3444;BME280;1736;52.068;6.968;2022-12-29T01:41:11;99496.59;;;9.69;100.00
3444;BME280;1736;52.068;6.968;2022-12-29T01:43:40;99487.97;;;9.67;100.00
3444;BME280;1736;52.068;6.968;2022-12-29T01:46:14;99470.03;;;9.61;100.00
3444;BME280;1736;52.068;6.968;2022-12-29T01:48:42;99482.22;;;9.72;100.00
3444;BME280;1736;52.068;6.968;2022-12-29T01:51:09;99492.66;;;9.73;100.00
3444;BME280;1736;52.068;6.968;2022-12-29T01:53:36;99470.72;;;9.81;100.00
3444;BME280;1736;52.068;6.968;2022-12-29T01:56:06;99467.25;;;9.80;100.00
3444;BME280;1736;52.068;6.968;2022-12-29T01:58:37;99474.19;;;9.81;100.00
3444;BME280;1736;52.068;6.968;2022-12-29T02:01:06;99495.78;;;9.86;100.00
3444;BME280;1736;52.068;6.968;2022-12-29T02:03:35;99483.22;;;9.88;100.00
3444;BME280;1736;52.068;6.968;2022-12-29T02:06:10;99500.63;;;9.91;100.00
3444;BME280;1736;52.068;6.968;2022-12-29T02:08:39;99480.91;;;9.93;100.00
3444;BME280;1736;52.068;6.968;2022-12-29T02:11:07;99474.97;;;9.91;100.00
3444;BME280;1736;52.068;6.968;2022-12-29T02:13:34;99489.19;;;9.90;100.00
3444;BME280;1736;52.068;6.968;2022-12-29T02:16:08;99484.56;;;9.92;100.00
3444;BME280;1736;52.068;6.968;2022-12-29T02:18:43;99470.31;;;9.93;100.00
3444;BME280;1736;52.068;6.968;2022-12-29T02:21:41;99477.97;;;9.96;100.00
3444;BME280;1736;52.068;6.968;2022-12-29T02:27:41;99482.44;;;9.96;100.00
3444;BME280;1736;52.068;6.968;2022-12-29T02:33:18;99469.97;;;9.88;100.00
3444;BME280;1736;52.068;6.968;2022-12-29T02:35:53;99473.53;;;9.97;100.00
3444;BME280;1736;52.068;6.968;2022-12-29T02:38:28;99467.06;;;9.99;100.00
3444;BME280;1736;52.068;6.968;2022-12-29T02:41:02;99454.13;;;9.96;100.00
3444;BME280;1736;52.068;6.968;2022-12-29T02:43:37;99470.03;;;9.96;100.00
3444;BME280;1736;52.068;6.968;2022-12-29T02:46:12;99462.22;;;9.95;100.00
3444;BME280;1736;52.068;6.968;2022-12-29T02:48:47;99469.03;;;9.97;100.00
3444;BME280;1736;52.068;6.968;2022-12-29T02:51:20;99459.50;;;10.04;100.00
3444;BME280;1736;52.068;6.968;2022-12-29T02:53:50;99458.66;;;10.04;100.00
3444;BME280;1736;52.068;6.968;2022-12-29T02:56:36;99453.78;;;10.09;100.00
3444;BME280;1736;52.068;6.968;2022-12-29T02:59:03;99450.34;;;10.16;100.00
3444;BME280;1736;52.068;6.968;2022-12-29T03:01:37;99447.53;;;10.18;100.00
3444;BME280;1736;52.068;6.968;2022-12-29T03:04:37;99436.09;;;10.17;100.00
3444;BME280;1736;52.068;6.968;2022-12-29T03:07:12;99446.69;;;10.17;100.00
3444;BME280;1736;52.068;6.968;2022-12-29T03:09:49;99434.59;;;10.15;100.00
3444;BME280;1736;52.068;6.968;2022-12-29T03:12:29;99444.69;;;10.11;100.00
3444;BME280;1736;52.068;6.968;2022-12-29T03:15:20;99430.31;;;10.22;100.00
3444;BME280;1736;52.068;6.968;2022-12-29T03:18:08;99430.84;;;10.25;100.00
3444;BME280;1736;52.068;6.968;2022-12-29T03:20:43;99418.47;;;10.34;100.00
3444;BME280;1736;52.068;6.968;2022-12-29T03:23:13;99427.78;;;10.38;100.00
3444;BME280;1736;52.068;6.968;2022-12-29T03:25:43;99423.63;;;10.35;100.00
3444;BME280;1736;52.068;6.968;2022-12-29T03:28:15;99421.97;;;10.42;100.00
3444;BME280;1736;52.068;6.968;2022-12-29T03:30:44;99411.53;;;10.41;100.00
3444;BME280;1736;52.068;6.968;2022-12-29T03:33:15;99413.22;;;10.42;100.00
3444;BME280;1736;52.068;6.968;2022-12-29T03:35:48;99409.56;;;10.43;100.00
3444;BME280;1736;52.068;6.968;2022-12-29T03:38:18;99392.31;;;10.39;100.00
3444;BME280;1736;52.068;6.968;2022-12-29T03:40:48;99396.50;;;10.49;100.00
3444;BME280;1736;52.068;6.968;2022-12-29T03:43:17;99404.09;;;10.44;100.00
3444;BME280;1736;52.068;6.968;2022-12-29T03:45:44;99427.03;;;10.53;100.00
3444;BME280;1736;52.068;6.968;2022-12-29T03:48:10;99393.50;;;10.44;100.00
3444;BME280;1736;52.068;6.968;2022-12-29T03:50:37;99425.72;;;10.57;100.00
3444;BME280;1736;52.068;6.968;2022-12-29T03:53:05;99403.16;;;10.53;100.00
3444;BME280;1736;52.068;6.968;2022-12-29T03:55:31;99398.34;;;10.57;100.00
3444;BME280;1736;52.068;6.968;2022-12-29T03:57:58;99401.84;;;10.57;100.00
3444;BME280;1736;52.068;6.968;2022-12-29T04:00:25;99395.34;;;10.52;100.00
3444;BME280;1736;52.068;6.968;2022-12-29T04:02:51;99392.22;;;10.57;100.00
3444;BME280;1736;52.068;6.968;2022-12-29T04:05:18;99418.41;;;10.59;100.00
3444;BME280;1736;52.068;6.968;2022-12-29T04:07:44;99404.00;;;10.54;100.00
3444;BME280;1736;52.068;6.968;2022-12-29T04:10:12;99418.66;;;10.40;100.00
3444;BME280;1736;52.068;6.968;2022-12-29T04:12:38;99409.41;;;10.44;100.00
3444;BME280;1736;52.068;6.968;2022-12-29T04:15:08;99393.50;;;10.44;100.00
3444;BME280;1736;52.068;6.968;2022-12-29T04:17:34;99386.66;;;10.34;100.00
3444;BME280;1736;52.068;6.968;2022-12-29T04:20:01;99388.19;;;10.44;100.00
3444;BME280;1736;52.068;6.968;2022-12-29T04:22:43;99418.72;;;10.48;100.00
3444;BME280;1736;52.068;6.968;2022-12-29T04:25:11;99412.22;;;10.43;100.00
3444;BME280;1736;52.068;6.968;2022-12-29T04:27:37;99410.75;;;10.48;100.00
3444;BME280;1736;52.068;6.968;2022-12-29T04:30:05;99406.06;;;10.42;100.00
3444;BME280;1736;52.068;6.968;2022-12-29T04:32:32;99417.03;;;10.39;100.00
3444;BME280;1736;52.068;6.968;2022-12-29T04:34:58;99428.94;;;10.35;100.00
3444;BME280;1736;52.068;6.968;2022-12-29T04:37:25;99425.34;;;10.19;100.00
3444;BME280;1736;52.068;6.968;2022-12-29T04:39:51;99418.09;;;10.03;100.00
3444;BME280;1736;52.068;6.968;2022-12-29T04:42:19;99405.72;;;9.94;100.00
3444;BME280;1736;52.068;6.968;2022-12-29T04:44:47;99413.31;;;9.89;100.00
3444;BME280;1736;52.068;6.968;2022-12-29T04:47:14;99394.13;;;9.87;100.00
3444;BME280;1736;52.068;6.968;2022-12-29T04:49:40;99412.31;;;9.82;100.00
3444;BME280;1736;52.068;6.968;2022-12-29T04:52:07;99412.75;;;9.78;100.00
3444;BME280;1736;52.068;6.968;2022-12-29T04:54:33;99407.31;;;9.79;100.00
3444;BME280;1736;52.068;6.968;2022-12-29T04:57:00;99405.59;;;9.70;100.00
3444;BME280;1736;52.068;6.968;2022-12-29T04:59:30;99417.69;;;9.73;100.00
3444;BME280;1736;52.068;6.968;2022-12-29T05:01:59;99415.63;;;9.67;100.00
3444;BME280;1736;52.068;6.968;2022-12-29T05:04:26;99425.56;;;9.65;100.00
3444;BME280;1736;52.068;6.968;2022-12-29T05:06:52;99409.97;;;9.62;100.00
3444;BME280;1736;52.068;6.968;2022-12-29T05:09:19;99446.19;;;9.61;100.00
3444;BME280;1736;52.068;6.968;2022-12-29T05:11:45;99431.94;;;9.54;100.00
3444;BME280;1736;52.068;6.968;2022-12-29T05:14:12;99443.47;;;9.53;100.00
3444;BME280;1736;52.068;6.968;2022-12-29T05:16:40;99458.31;;;9.46;100.00
3444;BME280;1736;52.068;6.968;2022-12-29T05:19:06;99455.34;;;9.49;100.00
3444;BME280;1736;52.068;6.968;2022-12-29T05:21:33;99423.22;;;9.44;100.00
3444;BME280;1736;52.068;6.968;2022-12-29T05:23:59;99416.84;;;9.37;100.00
3444;BME280;1736;52.068;6.968;2022-12-29T05:26:26;99434.84;;;9.34;100.00
3444;BME280;1736;52.068;6.968;2022-12-29T05:28:52;99417.75;;;9.28;100.00
3444;BME280;1736;52.068;6.968;2022-12-29T05:31:19;99420.63;;;9.35;100.00
3444;BME280;1736;52.068;6.968;2022-12-29T05:33:47;99442.72;;;9.26;100.00
3444;BME280;1736;52.068;6.968;2022-12-29T05:36:13;99439.84;;;9.19;100.00
3444;BME280;1736;52.068;6.968;2022-12-29T05:38:40;99437.72;;;9.23;100.00
3444;BME280;1736;52.068;6.968;2022-12-29T05:41:06;99443.47;;;9.18;100.00
3444;BME280;1736;52.068;6.968;2022-12-29T05:43:33;99457.69;;;9.17;100.00
3444;BME280;1736;52.068;6.968;2022-12-29T05:45:59;99438.19;;;9.18;100.00
3444;BME280;1736;52.068;6.968;2022-12-29T05:48:26;99449.19;;;9.14;100.00
3444;BME280;1736;52.068;6.968;2022-12-29T05:50:54;99448.63;;;9.20;100.00
3444;BME280;1736;52.068;6.968;2022-12-29T05:53:20;99461.91;;;9.10;100.00
3444;BME280;1736;52.068;6.968;2022-12-29T05:55:47;99458.88;;;9.05;100.00
3444;BME280;1736;52.068;6.968;2022-12-29T05:58:14;99453.97;;;9.10;100.00
3444;BME280;1736;52.068;6.968;2022-12-29T06:00:41;99461.44;;;8.97;100.00
3444;BME280;1736;52.068;6.968;2022-12-29T06:03:07;99467.91;;;9.03;100.00
3444;BME280;1736;52.068;6.968;2022-12-29T06:05:37;99473.06;;;9.04;100.00
3444;BME280;1736;52.068;6.968;2022-12-29T06:08:05;99475.84;;;9.03;100.00
3444;BME280;1736;52.068;6.968;2022-12-29T06:10:31;99474.00;;;9.13;100.00
3444;BME280;1736;52.068;6.968;2022-12-29T06:12:58;99482.13;;;9.29;100.00
3444;BME280;1736;52.068;6.968;2022-12-29T06:15:24;99499.16;;;9.26;100.00
3444;BME280;1736;52.068;6.968;2022-12-29T06:17:51;99491.59;;;9.31;100.00
3444;BME280;1736;52.068;6.968;2022-12-29T06:20:19;99496.34;;;9.28;100.00
3444;BME280;1736;52.068;6.968;2022-12-29T06:22:45;99494.91;;;9.33;100.00
3444;BME280;1736;52.068;6.968;2022-12-29T06:25:15;99503.34;;;9.19;100.00
3444;BME280;1736;52.068;6.968;2022-12-29T06:27:42;99499.06;;;9.18;100.00
3444;BME280;1736;52.068;6.968;2022-12-29T06:30:10;99500.63;;;9.11;100.00
3444;BME280;1736;52.068;6.968;2022-12-29T06:32:37;99507.94;;;9.00;100.00
3444;BME280;1736;52.068;6.968;2022-12-29T06:35:06;99512.38;;;8.99;100.00
3444;BME280;1736;52.068;6.968;2022-12-29T06:37:33;99519.38;;;8.91;100.00
3444;BME280;1736;52.068;6.968;2022-12-29T06:39:59;99518.81;;;8.87;100.00
3444;BME280;1736;52.068;6.968;2022-12-29T06:42:27;99521.09;;;8.82;100.00
3444;BME280;1736;52.068;6.968;2022-12-29T06:44:54;99511.06;;;8.76;100.00
3444;BME280;1736;52.068;6.968;2022-12-29T06:47:23;99528.50;;;8.69;100.00
3444;BME280;1736;52.068;6.968;2022-12-29T06:49:50;99526.28;;;8.65;100.00
3444;BME280;1736;52.068;6.968;2022-12-29T06:52:16;99526.16;;;8.66;100.00
3444;BME280;1736;52.068;6.968;2022-12-29T06:54:43;99529.47;;;8.68;100.00
3444;BME280;1736;52.068;6.968;2022-12-29T06:57:09;99542.00;;;8.66;100.00
3444;BME280;1736;52.068;6.968;2022-12-29T06:59:37;99542.41;;;8.71;100.00
3444;BME280;1736;52.068;6.968;2022-12-29T07:02:04;99547.31;;;8.66;100.00
3444;BME280;1736;52.068;6.968;2022-12-29T07:04:30;99542.28;;;8.63;100.00
3444;BME280;1736;52.068;6.968;2022-12-29T07:06:57;99544.16;;;8.53;100.00
3444;BME280;1736;52.068;6.968;2022-12-29T07:09:23;99540.38;;;8.56;100.00
3444;BME280;1736;52.068;6.968;2022-12-29T07:11:50;99544.16;;;8.53;100.00
3444;BME280;1736;52.068;6.968;2022-12-29T07:14:16;99533.97;;;8.58;100.00
3444;BME280;1736;52.068;6.968;2022-12-29T07:16:44;99530.78;;;8.55;100.00
3444;BME280;1736;52.068;6.968;2022-12-29T07:19:11;99530.66;;;8.56;100.00
3444;BME280;1736;52.068;6.968;2022-12-29T07:21:37;99535.75;;;8.67;100.00
3444;BME280;1736;52.068;6.968;2022-12-29T07:24:04;99531.72;;;8.63;100.00
3444;BME280;1736;52.068;6.968;2022-12-29T07:26:31;99536.22;;;8.53;100.00
3444;BME280;1736;52.068;6.968;2022-12-29T07:29:02;99540.16;;;8.76;99.19
3444;BME280;1736;52.068;6.968;2022-12-29T07:31:29;99551.91;;;8.64;99.84
3444;BME280;1736;52.068;6.968;2022-12-29T07:33:57;99551.13;;;8.91;98.31
3444;BME280;1736;52.068;6.968;2022-12-29T07:36:24;99546.63;;;9.01;97.25
3444;BME280;1736;52.068;6.968;2022-12-29T07:38:50;99551.31;;;9.07;96.41
3444;BME280;1736;52.068;6.968;2022-12-29T07:41:19;99546.00;;;9.16;94.98
3444;BME280;1736;52.068;6.968;2022-12-29T07:43:46;99551.97;;;9.18;94.10
3444;BME280;1736;52.068;6.968;2022-12-29T07:46:14;99554.63;;;9.18;93.72
3444;BME280;1736;52.068;6.968;2022-12-29T07:48:40;99559.91;;;9.18;92.96
3444;BME280;1736;52.068;6.968;2022-12-29T07:51:08;99563.28;;;9.11;93.12
3444;BME280;1736;52.068;6.968;2022-12-29T07:53:35;99571.97;;;9.03;93.81
3444;BME280;1736;52.068;6.968;2022-12-29T07:56:01;99562.47;;;9.10;92.96
3444;BME280;1736;52.068;6.968;2022-12-29T07:58:28;99571.69;;;9.06;93.00
3444;BME280;1736;52.068;6.968;2022-12-29T08:00:55;99569.94;;;9.15;92.21
3444;BME280;1736;52.068;6.968;2022-12-29T08:03:22;99565.22;;;9.18;91.86
3444;BME280;1736;52.068;6.968;2022-12-29T08:05:50;99574.28;;;9.16;92.61
3444;BME280;1736;52.068;6.968;2022-12-29T08:08:21;99569.38;;;9.21;92.38
3444;BME280;1736;52.068;6.968;2022-12-29T08:10:47;99567.97;;;9.26;91.69
3444;BME280;1736;52.068;6.968;2022-12-29T08:13:14;99571.97;;;9.30;91.48
3444;BME280;1736;52.068;6.968;2022-12-29T08:15:41;99571.66;;;9.33;91.46
3444;BME280;1736;52.068;6.968;2022-12-29T08:18:07;99578.06;;;9.40;91.54
3444;BME280;1736;52.068;6.968;2022-12-29T08:20:34;99573.34;;;9.34;92.24
3444;BME280;1736;52.068;6.968;2022-12-29T08:23:00;99583.50;;;9.39;91.69
3444;BME280;1736;52.068;6.968;2022-12-29T08:25:28;99583.06;;;9.43;92.18
3444;BME280;1736;52.068;6.968;2022-12-29T08:27:54;99598.66;;;9.46;91.95
3444;BME280;1736;52.068;6.968;2022-12-29T08:30:21;99606.59;;;9.46;92.25
3444;BME280;1736;52.068;6.968;2022-12-29T08:32:48;99604.47;;;9.50;91.84
3444;BME280;1736;52.068;6.968;2022-12-29T08:35:15;99603.75;;;9.57;91.79
3444;BME280;1736;52.068;6.968;2022-12-29T08:37:43;99615.31;;;9.56;91.87
3444;BME280;1736;52.068;6.968;2022-12-29T08:40:10;99609.44;;;9.62;91.41
3444;BME280;1736;52.068;6.968;2022-12-29T08:42:38;99611.19;;;9.71;90.78
3444;BME280;1736;52.068;6.968;2022-12-29T08:45:06;99619.81;;;9.73;89.70
3444;BME280;1736;52.068;6.968;2022-12-29T08:47:33;99608.94;;;9.76;89.12
3444;BME280;1736;52.068;6.968;2022-12-29T08:50:00;99609.78;;;9.77;89.15
3444;BME280;1736;52.068;6.968;2022-12-29T08:52:26;99614.59;;;9.81;87.71
3444;BME280;1736;52.068;6.968;2022-12-29T08:54:53;99602.34;;;9.80;86.97
3444;BME280;1736;52.068;6.968;2022-12-29T08:57:19;99613.25;;;9.77;86.80
3444;BME280;1736;52.068;6.968;2022-12-29T08:59:47;99607.28;;;9.75;86.10
3444;BME280;1736;52.068;6.968;2022-12-29T09:02:14;99615.66;;;9.71;87.08
3444;BME280;1736;52.068;6.968;2022-12-29T09:04:40;99627.03;;;9.81;86.93
3444;BME280;1736;52.068;6.968;2022-12-29T09:07:07;99623.03;;;9.94;85.31
3444;BME280;1736;52.068;6.968;2022-12-29T09:09:34;99622.16;;;10.03;84.86
3444;BME280;1736;52.068;6.968;2022-12-29T09:12:00;99627.00;;;10.08;84.76
3444;BME280;1736;52.068;6.968;2022-12-29T09:14:27;99625.72;;;10.12;83.95
3444;BME280;1736;52.068;6.968;2022-12-29T09:16:55;99612.31;;;10.13;82.78
3444;BME280;1736;52.068;6.968;2022-12-29T09:19:38;99618.47;;;10.14;82.30
3444;BME280;1736;52.068;6.968;2022-12-29T09:22:05;99618.00;;;10.01;82.95
3444;BME280;1736;52.068;6.968;2022-12-29T09:24:32;99623.44;;;9.99;82.63
3444;BME280;1736;52.068;6.968;2022-12-29T09:26:58;99619.09;;;9.98;82.68
3444;BME280;1736;52.068;6.968;2022-12-29T09:29:25;99613.97;;;10.14;81.27
3444;BME280;1736;52.068;6.968;2022-12-29T09:31:51;99620.75;;;10.09;81.84
3444;BME280;1736;52.068;6.968;2022-12-29T09:34:19;99618.84;;;9.92;82.96
3444;BME280;1736;52.068;6.968;2022-12-29T09:36:47;99621.38;;;9.93;82.81
3444;BME280;1736;52.068;6.968;2022-12-29T09:39:14;99614.13;;;9.95;82.29
3444;BME280;1736;52.068;6.968;2022-12-29T09:41:43;99629.69;;;9.98;82.04
3444;BME280;1736;52.068;6.968;2022-12-29T09:44:17;99625.72;;;10.12;81.24
3444;BME280;1736;52.068;6.968;2022-12-29T09:46:48;99633.41;;;10.32;79.64
3444;BME280;1736;52.068;6.968;2022-12-29T09:49:24;99630.97;;;10.39;79.82
3444;BME280;1736;52.068;6.968;2022-12-29T09:51:54;99617.72;;;10.39;78.42
3444;BME280;1736;52.068;6.968;2022-12-29T09:54:32;99626.31;;;10.41;78.69
3444;BME280;1736;52.068;6.968;2022-12-29T09:57:01;99643.31;;;10.48;78.16
3444;BME280;1736;52.068;6.968;2022-12-29T09:59:36;99635.78;;;10.61;77.49
3444;BME280;1736;52.068;6.968;2022-12-29T10:02:13;99644.88;;;10.58;77.48
3444;BME280;1736;52.068;6.968;2022-12-29T10:04:45;99648.25;;;10.61;77.04
3444;BME280;1736;52.068;6.968;2022-12-29T10:07:19;99641.78;;;10.45;79.66
3444;BME280;1736;52.068;6.968;2022-12-29T10:09:54;99639.69;;;10.14;83.93
3444;BME280;1736;52.068;6.968;2022-12-29T10:12:29;99629.88;;;9.97;84.47
3444;BME280;1736;52.068;6.968;2022-12-29T10:15:02;99631.34;;;9.82;85.77
3444;BME280;1736;52.068;6.968;2022-12-29T10:17:36;99631.13;;;9.75;87.73
3444;BME280;1736;52.068;6.968;2022-12-29T10:20:20;99626.81;;;9.74;87.63
3444;BME280;1736;52.068;6.968;2022-12-29T10:23:01;99636.78;;;9.80;86.90
3444;BME280;1736;52.068;6.968;2022-12-29T10:25:34;99629.69;;;9.98;85.38
3444;BME280;1736;52.068;6.968;2022-12-29T10:28:06;99634.16;;;10.07;85.12
3444;BME280;1736;52.068;6.968;2022-12-29T10:30:36;99640.50;;;10.14;85.23
3444;BME280;1736;52.068;6.968;2022-12-29T10:33:06;99646.88;;;10.21;84.36
3444;BME280;1736;52.068;6.968;2022-12-29T10:35:37;99631.19;;;10.28;83.95
3444;BME280;1736;52.068;6.968;2022-12-29T10:38:12;99632.78;;;10.38;83.06
3444;BME280;1736;52.068;6.968;2022-12-29T10:40:49;99648.09;;;10.44;82.74
3444;BME280;1736;52.068;6.968;2022-12-29T10:43:22;99655.13;;;10.36;84.37
3444;BME280;1736;52.068;6.968;2022-12-29T10:45:51;99641.34;;;10.32;83.61
3444;BME280;1736;52.068;6.968;2022-12-29T10:48:20;99651.25;;;10.30;84.11
3444;BME280;1736;52.068;6.968;2022-12-29T10:50:50;99653.69;;;10.24;84.56
3444;BME280;1736;52.068;6.968;2022-12-29T10:53:20;99659.84;;;10.24;85.09
3444;BME280;1736;52.068;6.968;2022-12-29T10:55:49;99664.84;;;10.27;84.76
3444;BME280;1736;52.068;6.968;2022-12-29T10:58:19;99659.00;;;10.24;85.98
3444;BME280;1736;52.068;6.968;2022-12-29T11:00:49;99676.31;;;10.18;85.71
3444;BME280;1736;52.068;6.968;2022-12-29T11:03:39;99678.59;;;10.13;86.11
3444;BME280;1736;52.068;6.968;2022-12-29T11:06:13;99683.53;;;10.08;86.98
3444;BME280;1736;52.068;6.968;2022-12-29T11:08:52;99670.34;;;10.16;86.51
3444;BME280;1736;52.068;6.968;2022-12-29T11:11:23;99679.22;;;10.07;87.56
3444;BME280;1736;52.068;6.968;2022-12-29T11:13:56;99669.00;;;10.12;87.31
3444;BME280;1736;52.068;6.968;2022-12-29T11:16:31;99679.59;;;10.12;87.37
3444;BME280;1736;52.068;6.968;2022-12-29T11:18:59;99682.91;;;10.14;87.60
3444;BME280;1736;52.068;6.968;2022-12-29T11:21:32;99695.38;;;10.04;88.40
3444;BME280;1736;52.068;6.968;2022-12-29T11:24:00;99686.47;;;10.05;88.13
3444;BME280;1736;52.068;6.968;2022-12-29T11:26:28;99687.56;;;10.03;88.52
3444;BME280;1736;52.068;6.968;2022-12-29T11:29:25;99698.31;;;10.01;89.74
3444;BME280;1736;52.068;6.968;2022-12-29T11:31:53;99694.66;;;10.02;89.05
3444;BME280;1736;52.068;6.968;2022-12-29T11:34:22;99700.97;;;10.01;89.29
3444;BME280;1736;52.068;6.968;2022-12-29T11:36:53;99725.03;;;9.90;90.63
3444;BME280;1736;52.068;6.968;2022-12-29T11:39:29;99736.19;;;9.84;93.11
3444;BME280;1736;52.068;6.968;2022-12-29T11:41:58;99736.09;;;9.76;93.54
3444;BME280;1736;52.068;6.968;2022-12-29T11:44:25;99735.22;;;9.49;96.40
3444;BME280;1736;52.068;6.968;2022-12-29T11:46:53;99742.88;;;9.52;98.12
3444;BME280;1736;52.068;6.968;2022-12-29T11:49:22;99732.72;;;9.47;98.50
3444;BME280;1736;52.068;6.968;2022-12-29T11:51:52;99748.34;;;9.41;98.67
3444;BME280;1736;52.068;6.968;2022-12-29T11:54:24;99749.16;;;9.41;98.58
3444;BME280;1736;52.068;6.968;2022-12-29T11:56:52;99740.41;;;9.41;97.61
3444;BME280;1736;52.068;6.968;2022-12-29T11:59:38;99740.78;;;9.55;96.67
3444;BME280;1736;52.068;6.968;2022-12-29T12:02:20;99739.47;;;9.69;93.80
3444;BME280;1736;52.068;6.968;2022-12-29T12:04:51;99755.91;;;9.72;93.21
3444;BME280;1736;52.068;6.968;2022-12-29T12:07:25;99748.06;;;9.80;93.62
3444;BME280;1736;52.068;6.968;2022-12-29T12:09:58;99761.72;;;9.85;91.85
3444;BME280;1736;52.068;6.968;2022-12-29T12:12:29;99757.50;;;9.92;91.26
3444;BME280;1736;52.068;6.968;2022-12-29T12:14:58;99765.03;;;9.97;90.75
3444;BME280;1736;52.068;6.968;2022-12-29T12:17:29;99751.44;;;10.09;90.20
3444;BME280;1736;52.068;6.968;2022-12-29T12:20:12;99762.06;;;10.09;90.52
3444;BME280;1736;52.068;6.968;2022-12-29T12:22:48;99765.25;;;10.13;90.76
3444;BME280;1736;52.068;6.968;2022-12-29T12:25:20;99759.34;;;10.19;89.45
3444;BME280;1736;52.068;6.968;2022-12-29T12:27:51;99775.50;;;10.25;89.81
3444;BME280;1736;52.068;6.968;2022-12-29T12:30:22;99773.66;;;10.35;89.32
3444;BME280;1736;52.068;6.968;2022-12-29T12:32:53;99773.00;;;10.24;89.45
3444;BME280;1736;52.068;6.968;2022-12-29T12:35:27;99786.28;;;10.41;88.56
3444;BME280;1736;52.068;6.968;2022-12-29T12:38:08;99783.41;;;10.35;88.41
3444;BME280;1736;52.068;6.968;2022-12-29T12:40:57;99787.47;;;10.29;88.56
3444;BME280;1736;52.068;6.968;2022-12-29T12:43:45;99804.63;;;10.35;88.95
3444;BME280;1736;52.068;6.968;2022-12-29T12:46:33;99793.25;;;10.25;87.84
3444;BME280;1736;52.068;6.968;2022-12-29T12:49:17;99803.16;;;10.23;87.46
3444;BME280;1736;52.068;6.968;2022-12-29T12:51:57;99817.91;;;10.25;87.32
3444;BME280;1736;52.068;6.968;2022-12-29T12:54:40;99801.13;;;10.34;86.99
3444;BME280;1736;52.068;6.968;2022-12-29T12:57:17;99810.91;;;10.34;86.44
3444;BME280;1736;52.068;6.968;2022-12-29T12:59:56;99825.19;;;10.23;86.68
3444;BME280;1736;52.068;6.968;2022-12-29T13:02:37;99816.13;;;10.26;86.08
3444;BME280;1736;52.068;6.968;2022-12-29T13:05:23;99820.97;;;10.30;85.66
3444;BME280;1736;52.068;6.968;2022-12-29T13:08:01;99822.69;;;10.22;85.40
3444;BME280;1736;52.068;6.968;2022-12-29T13:10:39;99829.06;;;10.29;85.26
3444;BME280;1736;52.068;6.968;2022-12-29T13:13:32;99821.31;;;10.18;84.45
3444;BME280;1736;52.068;6.968;2022-12-29T13:16:08;99837.47;;;10.24;84.49
3444;BME280;1736;52.068;6.968;2022-12-29T13:18:46;99831.47;;;10.22;84.42
3444;BME280;1736;52.068;6.968;2022-12-29T13:21:24;99827.03;;;10.13;84.75
3444;BME280;1736;52.068;6.968;2022-12-29T13:23:56;99837.75;;;10.21;84.41
3444;BME280;1736;52.068;6.968;2022-12-29T13:26:33;99834.47;;;10.10;84.91
3444;BME280;1736;52.068;6.968;2022-12-29T13:29:08;99829.16;;;10.10;84.19
3444;BME280;1736;52.068;6.968;2022-12-29T13:31:49;99838.38;;;10.06;84.78
3444;BME280;1736;52.068;6.968;2022-12-29T13:34:26;99852.31;;;10.08;84.69
3444;BME280;1736;52.068;6.968;2022-12-29T13:37:00;99830.16;;;10.09;83.97
3444;BME280;1736;52.068;6.968;2022-12-29T13:39:32;99834.88;;;10.05;84.51
3444;BME280;1736;52.068;6.968;2022-12-29T13:42:03;99832.25;;;10.05;84.61
3444;BME280;1736;52.068;6.968;2022-12-29T13:44:34;99852.56;;;10.14;83.82
3444;BME280;1736;52.068;6.968;2022-12-29T13:47:10;99853.16;;;10.08;84.26
3444;BME280;1736;52.068;6.968;2022-12-29T13:49:41;99861.78;;;10.10;84.57